Погода Эрли -Бична неделю

Тасмания, Австралия

09 - 15 февраля
  • 09февраля
    Сегодня
    +22°
    +31°
    Облачно с прояснениями
    ВремяПогодаТемператураВлажностьДавлениеВетер, м/сВероятность осадков
    01:00Облачно с прояснениями+25°C85 %752 мм7.3 м/с49 %
    04:00Облачно с прояснениями, небольшой дождь+25°C85 %751 мм7.6 м/с51 %
    07:00Облачно с прояснениями+25°C78 %752 мм7.3 м/с40 %
    10:00Пасмурно, сплошная облачность+29°C72 %752 мм9.2 м/с39 %
    13:00Облачно с прояснениями+31°C64 %751 мм8.5 м/с39 %
    16:00Облачно с прояснениями+30°C63 %750 мм6.9 м/с28 %
    19:00Небольшая облачность+28°C65 %751 мм6.0 м/с7 %
    22:00Практически безоблачно+26°C66 %753 мм5.6 м/с2 %
  • 10февраля
    Пятница
    +22°
    +31°
    Ясно и безоблачно
    ВремяПогодаТемператураВлажностьДавлениеВетер, м/сВероятность осадков
    01:00Облачно с прояснениями+24°C68 %752 мм4.3 м/с5 %
    04:00Облачно с прояснениями+23°C84 %752 мм2.1 м/с5 %
    07:00Ясно и безоблачно+24°C79 %753 мм3.0 м/с5 %
    10:00Ясно и безоблачно+29°C62 %754 мм1.9 м/с5 %
    13:00Ясно и безоблачно+31°C64 %753 мм3.0 м/с5 %
    16:00Ясно и безоблачно+30°C70 %752 мм5.2 м/с2 %
    19:00Ясно и безоблачно+27°C72 %753 мм3.2 м/с2 %
    22:00Ясно и безоблачно+25°C77 %755 мм2.2 м/с5 %
  • 11февраля
    Суббота
    +22°
    +32°
    Ясно и безоблачно
    ВремяПогодаТемператураВлажностьДавлениеВетер, м/сВероятность осадков
    01:00Ясно и безоблачно+24°C87 %754 мм1.6 м/с5 %
    04:00Ясно и безоблачно+23°C90 %753 мм1.3 м/с5 %
    07:00Ясно и безоблачно+24°C88 %755 мм2.2 м/с5 %
    10:00Ясно и безоблачно+30°C74 %756 мм1.0 м/с5 %
    13:00Ясно и безоблачно+31°C62 %755 мм2.9 м/с5 %
    16:00Практически безоблачно+30°C66 %753 мм3.8 м/с5 %
    19:00Ясно и безоблачно+27°C74 %754 мм2.7 м/с5 %
    22:00Ясно и безоблачно+25°C86 %756 мм1.9 м/с5 %
  • 12февраля
    Воскресенье
    +22°
    +32°
    Ясно и безоблачно
    ВремяПогодаТемператураВлажностьДавлениеВетер, м/сВероятность осадков
    01:00Ясно и безоблачно+24°C88 %755 мм1.6 м/с5 %
    04:00Практически безоблачно+23°C93 %754 мм1.5 м/с5 %
    07:00Небольшая облачность+24°C94 %755 мм3.0 м/с5 %
    10:00Ясно и безоблачно+30°C74 %756 мм1.6 м/с5 %
    13:00Ясно и безоблачно+31°C69 %754 мм3.4 м/с5 %
    16:00Ясно и безоблачно+31°C68 %753 мм5.0 м/с5 %
    19:00Ясно и безоблачно+28°C77 %754 мм4.4 м/с5 %
    22:00Ясно и безоблачно+26°C80 %756 мм4.5 м/с5 %
  • 13февраля
    Понедельник
    +23°
    +32°
    Небольшая облачность
    ВремяПогодаТемператураВлажностьДавлениеВетер, м/сВероятность осадков
    01:00Ясно и безоблачно+26°C82 %754 мм5.9 м/с5 %
    04:00Небольшая облачность+24°C88 %753 мм3.7 м/с5 %
    07:00Практически безоблачно+25°C85 %754 мм3.5 м/с5 %
    10:00Небольшая облачность+30°C65 %754 мм3.6 м/с5 %
    13:00Небольшая облачность+32°C65 %753 мм5.7 м/с5 %
    16:00Ясно и безоблачно+31°C71 %752 мм7.0 м/с3 %
    19:00Ясно и безоблачно+27°C77 %753 мм6.0 м/с3 %
    22:00Ясно и безоблачно+26°C81 %754 мм5.0 м/с3 %
Мы используем cookies
Соглашаюсь